createdAt,value
2024-05-09T00:00:40.751Z,15.32
2024-05-09T00:03:10.333Z,14.65
2024-05-09T00:05:39.178Z,13.50
2024-05-09T00:08:07.040Z,12.90
2024-05-09T00:10:37.554Z,14.43
2024-05-09T00:13:11.095Z,14.68
2024-05-09T00:15:38.737Z,14.32
2024-05-09T00:18:07.733Z,16.90
2024-05-09T00:20:39.381Z,13.13
2024-05-09T00:23:12.936Z,14.00
2024-05-09T00:25:41.608Z,14.13
2024-05-09T00:28:09.023Z,12.85
2024-05-09T00:30:37.372Z,13.35
2024-05-09T00:33:06.711Z,15.43
2024-05-09T00:35:35.711Z,11.48
2024-05-09T00:38:03.483Z,13.82
2024-05-09T00:40:40.635Z,13.82
2024-05-09T00:43:10.513Z,13.57
2024-05-09T00:45:38.015Z,16.80
2024-05-09T00:48:07.966Z,13.63
2024-05-09T00:50:38.222Z,12.55
2024-05-09T00:53:10.938Z,14.32
2024-05-09T00:55:38.718Z,10.65
2024-05-09T00:58:06.833Z,13.23
2024-05-09T01:00:39.082Z,12.30
2024-05-09T01:03:10.351Z,13.45
2024-05-09T01:05:40.022Z,14.02
2024-05-09T01:08:08.140Z,12.45
2024-05-09T01:10:36.550Z,13.25
2024-05-09T01:13:04.647Z,13.00
2024-05-09T01:15:32.100Z,12.70
2024-05-09T01:18:01.039Z,14.50
2024-05-09T01:20:39.126Z,13.85
2024-05-09T01:23:10.210Z,16.48
2024-05-09T01:25:37.910Z,13.00
2024-05-09T01:28:05.496Z,12.93
2024-05-09T01:30:36.284Z,13.65
2024-05-09T01:33:09.923Z,13.15
2024-05-09T01:35:41.287Z,13.55
2024-05-09T01:38:10.078Z,12.80
2024-05-09T01:40:40.076Z,14.82
2024-05-09T01:43:09.218Z,15.30
2024-05-09T01:45:37.532Z,14.68
2024-05-09T01:48:05.163Z,13.90
2024-05-09T01:50:38.795Z,13.50
2024-05-09T01:53:13.634Z,14.90
2024-05-09T01:55:41.534Z,13.57
2024-05-09T01:58:09.657Z,15.30
2024-05-09T02:00:40.931Z,16.27
2024-05-09T02:03:12.353Z,14.07
2024-05-09T02:05:43.029Z,14.60
2024-05-09T02:08:14.984Z,16.65
2024-05-09T02:10:43.401Z,15.75
2024-05-09T02:13:10.956Z,14.52
2024-05-09T02:15:38.234Z,18.63
2024-05-09T02:18:06.045Z,15.00
2024-05-09T02:20:36.463Z,15.50
2024-05-09T02:23:06.163Z,15.05
2024-05-09T02:25:34.128Z,14.35
2024-05-09T02:28:01.696Z,14.18
2024-05-09T02:30:38.249Z,15.18
2024-05-09T02:33:09.876Z,15.52
2024-05-09T02:35:38.906Z,17.92
2024-05-09T02:38:06.457Z,14.80
2024-05-09T02:40:37.714Z,14.48
2024-05-09T02:43:07.679Z,15.93
2024-05-09T02:45:35.227Z,14.40
2024-05-09T02:48:02.983Z,14.68
2024-05-09T02:50:37.350Z,16.20
2024-05-09T02:53:10.386Z,15.18
2024-05-09T02:55:41.200Z,14.93
2024-05-09T02:58:08.642Z,14.65
2024-05-09T03:00:39.814Z,16.77
2024-05-09T03:03:11.137Z,16.67
2024-05-09T03:05:40.922Z,13.18
2024-05-09T03:08:08.475Z,13.50
2024-05-09T03:10:38.127Z,18.27
2024-05-09T03:13:07.301Z,15.93
2024-05-09T03:15:34.699Z,14.60
2024-05-09T03:18:02.213Z,14.38
2024-05-09T03:20:34.219Z,14.73
2024-05-09T03:23:04.062Z,18.17
2024-05-09T03:25:31.705Z,16.10
2024-05-09T03:27:59.618Z,19.73
2024-05-09T03:30:38.813Z,15.95
2024-05-09T03:33:15.505Z,19.67
2024-05-09T03:35:44.054Z,16.08
2024-05-09T03:38:11.556Z,18.85
2024-05-09T03:40:45.041Z,14.90
2024-05-09T03:43:13.298Z,16.50
2024-05-09T03:45:40.627Z,17.05
2024-05-09T03:48:08.605Z,16.70
2024-05-09T03:50:37.124Z,16.63
2024-05-09T03:53:05.138Z,15.40
2024-05-09T03:55:32.675Z,16.15
2024-05-09T03:58:00.112Z,16.65
2024-05-09T04:00:35.501Z,15.95
2024-05-09T04:03:08.785Z,14.98
2024-05-09T04:05:40.431Z,17.63
2024-05-09T04:08:08.927Z,15.98
2024-05-09T04:10:36.368Z,16.95
2024-05-09T04:13:04.488Z,15.98
2024-05-09T04:15:32.400Z,17.40
2024-05-09T04:18:00.659Z,17.45
2024-05-09T04:20:36.602Z,16.55
2024-05-09T04:23:08.149Z,16.60
2024-05-09T04:25:36.440Z,14.82
2024-05-09T04:28:03.921Z,14.43
2024-05-09T04:30:37.627Z,17.50
2024-05-09T04:33:09.396Z,14.50
2024-05-09T04:35:39.049Z,14.27
2024-05-09T04:38:06.736Z,13.73
2024-05-09T04:40:36.582Z,12.85
2024-05-09T04:43:14.215Z,14.40
2024-05-09T04:45:41.758Z,12.60
2024-05-09T04:48:09.492Z,13.45
2024-05-09T04:50:39.064Z,13.82
2024-05-09T04:53:09.234Z,13.60
2024-05-09T04:55:38.179Z,11.13
2024-05-09T04:58:07.708Z,12.88
2024-05-09T05:00:37.432Z,12.13
2024-05-09T05:03:08.373Z,14.45
2024-05-09T05:05:43.540Z,13.38
2024-05-09T05:08:19.396Z,14.75
2024-05-09T05:10:47.973Z,14.13
2024-05-09T05:13:17.903Z,12.85
2024-05-09T05:15:57.678Z,15.40
2024-05-09T05:18:26.507Z,15.50
2024-05-09T05:20:54.435Z,15.90
2024-05-09T05:23:22.530Z,14.15
2024-05-09T05:25:52.468Z,13.93
2024-05-09T05:28:20.533Z,15.98
2024-05-09T05:30:47.889Z,15.77
2024-05-09T05:33:19.000Z,15.05
2024-05-09T05:35:46.981Z,16.45
2024-05-09T05:38:14.551Z,15.52
2024-05-09T05:40:41.942Z,17.25
2024-05-09T05:43:10.682Z,17.02
2024-05-09T05:45:39.109Z,16.73
2024-05-09T05:48:07.584Z,16.00
2024-05-09T05:50:37.617Z,17.38
2024-05-09T05:53:07.401Z,15.77
2024-05-09T05:55:35.846Z,14.95
2024-05-09T05:58:03.581Z,16.35
2024-05-09T06:00:38.182Z,15.90
2024-05-09T06:03:07.767Z,16.23
2024-05-09T06:05:36.589Z,16.50
2024-05-09T06:08:04.198Z,16.50
2024-05-09T06:10:38.040Z,16.38
2024-05-09T06:13:08.126Z,17.70
2024-05-09T06:15:35.417Z,15.15
2024-05-09T06:18:05.654Z,17.63
2024-05-09T06:20:36.549Z,16.55
2024-05-09T06:23:09.485Z,16.95
2024-05-09T06:25:37.371Z,17.20
2024-05-09T06:28:05.106Z,16.30
2024-05-09T06:33:03.377Z,15.63
2024-05-09T06:35:31.185Z,15.07
2024-05-09T06:37:58.752Z,14.82
2024-05-09T06:40:34.452Z,14.77
2024-05-09T06:43:05.748Z,15.10
2024-05-09T06:45:33.100Z,16.63
2024-05-09T06:48:00.761Z,16.85
2024-05-09T06:53:03.141Z,16.30
2024-05-09T06:55:30.491Z,14.43
2024-05-09T06:57:57.760Z,17.13
2024-05-09T07:00:30.967Z,15.98
2024-05-09T07:03:10.114Z,15.73
2024-05-09T07:05:38.382Z,14.23
2024-05-09T07:08:06.010Z,16.67
2024-05-09T07:10:35.883Z,14.95
2024-05-09T07:13:04.031Z,14.57
2024-05-09T07:15:31.819Z,16.45
2024-05-09T07:20:32.244Z,15.73
2024-05-09T07:23:03.030Z,14.27
2024-05-09T07:25:30.768Z,16.17
2024-05-09T07:30:32.823Z,14.60
2024-05-09T07:33:02.628Z,14.93
2024-05-09T07:35:30.923Z,15.80
2024-05-09T07:37:58.829Z,14.90
2024-05-09T07:40:33.191Z,14.18
2024-05-09T07:43:08.363Z,14.90
2024-05-09T07:53:36.900Z,14.43
2024-05-09T07:55:56.807Z,16.08
2024-05-09T07:58:27.791Z,13.05
2024-05-09T08:00:55.487Z,13.07
2024-05-09T08:03:23.798Z,15.05
2024-05-09T08:05:52.068Z,13.20
2024-05-09T08:08:19.455Z,14.43
2024-05-09T08:10:47.124Z,13.27
2024-05-09T08:13:14.595Z,8.68
2024-05-09T08:15:42.082Z,10.50
2024-05-09T08:18:10.010Z,12.77
2024-05-09T08:20:38.696Z,13.05
2024-05-09T08:23:06.384Z,10.52
2024-05-09T08:25:33.897Z,11.63
2024-05-09T08:28:01.447Z,11.80
2024-05-09T08:30:34.114Z,14.45
2024-05-09T08:33:05.352Z,13.20
2024-05-09T08:35:33.889Z,16.13
2024-05-09T08:40:34.425Z,13.38
2024-05-09T08:43:08.148Z,12.55
2024-05-09T08:45:36.911Z,14.07
2024-05-09T08:48:07.661Z,13.45
2024-05-09T08:50:39.071Z,12.90
2024-05-09T08:53:08.221Z,15.10
2024-05-09T08:55:40.246Z,12.60
2024-05-09T08:58:11.595Z,12.32
2024-05-09T09:00:39.935Z,12.75
2024-05-09T09:03:09.812Z,12.20
2024-05-09T09:05:39.539Z,14.73
2024-05-09T09:08:08.322Z,13.15
2024-05-09T09:10:36.048Z,13.48
2024-05-09T09:13:05.126Z,12.85
2024-05-09T09:15:33.249Z,13.68
2024-05-09T09:18:01.548Z,12.20
2024-05-09T09:20:36.299Z,12.27
2024-05-09T09:23:04.979Z,13.55
2024-05-09T09:25:32.488Z,14.05
2024-05-09T09:28:00.068Z,13.32
2024-05-09T09:30:35.370Z,13.15
2024-05-09T09:33:05.840Z,13.15
2024-05-09T09:35:33.464Z,14.32
2024-05-09T09:38:03.200Z,13.55
2024-05-09T09:40:37.540Z,13.23
2024-05-09T09:43:12.880Z,15.98
2024-05-09T09:45:40.556Z,14.52
2024-05-09T09:48:08.776Z,14.65
2024-05-09T09:50:38.932Z,14.63
2024-05-09T09:53:07.952Z,13.95
2024-05-09T09:55:35.737Z,14.52
2024-05-09T09:58:05.869Z,14.70
2024-05-09T10:00:34.727Z,14.27
2024-05-09T10:03:02.613Z,14.52
2024-05-09T10:05:30.709Z,13.93
2024-05-09T10:07:58.778Z,14.60
2024-05-09T10:10:31.785Z,14.23
2024-05-09T10:15:28.250Z,15.85
2024-05-09T10:17:55.724Z,14.00
2024-05-09T10:20:28.143Z,14.88
2024-05-09T10:22:59.574Z,15.38
2024-05-09T10:25:26.910Z,16.60
2024-05-09T10:27:57.131Z,14.48
2024-05-09T10:30:33.662Z,14.35
2024-05-09T10:33:03.364Z,16.60
2024-05-09T10:35:32.044Z,14.73
2024-05-09T10:38:06.410Z,15.65
2024-05-09T10:40:33.801Z,17.25
2024-05-09T10:43:04.631Z,15.20
2024-05-09T10:45:35.934Z,15.25
2024-05-09T10:48:03.560Z,15.27
2024-05-09T10:50:34.197Z,14.80
2024-05-09T10:53:03.122Z,14.82
2024-05-09T10:55:34.696Z,14.07
2024-05-09T10:58:02.202Z,13.82
2024-05-09T11:00:36.058Z,12.93
2024-05-09T11:03:04.192Z,14.52
2024-05-09T11:05:34.042Z,15.27
2024-05-09T11:08:01.573Z,13.90
2024-05-09T11:10:33.763Z,15.77
2024-05-09T11:13:01.898Z,14.40
2024-05-09T11:15:41.560Z,15.88
2024-05-09T11:18:09.358Z,14.45
2024-05-09T11:20:37.329Z,17.50
2024-05-09T11:23:07.872Z,15.27
2024-05-09T11:25:35.173Z,14.90
2024-05-09T11:28:02.822Z,15.82
2024-05-09T11:30:34.828Z,15.63
2024-05-09T11:33:02.205Z,18.35
2024-05-09T11:35:29.544Z,15.75
2024-05-09T11:37:56.843Z,16.75
2024-05-09T11:40:28.098Z,15.57
2024-05-09T11:42:59.816Z,15.57
2024-05-09T11:45:27.224Z,14.60
2024-05-09T11:47:54.718Z,16.17
2024-05-09T11:50:27.381Z,15.40
2024-05-09T11:52:59.916Z,14.02
2024-05-09T11:55:28.386Z,15.48
2024-05-09T11:57:57.655Z,14.30
2024-05-09T12:00:33.250Z,14.77
2024-05-09T12:03:05.482Z,15.93
2024-05-09T12:05:34.115Z,16.65
2024-05-09T12:08:02.045Z,14.93
2024-05-09T12:10:33.835Z,16.42
2024-05-09T12:13:05.532Z,15.82
2024-05-09T12:15:37.037Z,15.15
2024-05-09T12:18:05.599Z,15.75
2024-05-09T12:20:37.709Z,14.50
2024-05-09T12:23:07.813Z,15.93
2024-05-09T12:25:35.658Z,14.40
2024-05-09T12:28:03.119Z,15.55
2024-05-09T12:30:36.701Z,13.07
2024-05-09T12:33:08.990Z,14.18
2024-05-09T12:35:36.849Z,15.90
2024-05-09T12:38:04.653Z,16.00
2024-05-09T12:40:36.665Z,16.42
2024-05-09T12:43:07.687Z,14.02
2024-05-09T12:45:36.010Z,14.60
2024-05-09T12:48:04.778Z,15.85
2024-05-09T12:50:34.176Z,16.50
2024-05-09T12:53:03.357Z,17.88
2024-05-09T12:55:37.602Z,16.88
2024-05-09T12:58:12.369Z,13.93
2024-05-09T13:00:39.906Z,16.67
2024-05-09T13:03:07.893Z,14.10
2024-05-09T13:08:03.631Z,15.07
2024-05-09T13:10:32.990Z,14.55
2024-05-09T13:13:01.866Z,14.85
2024-05-09T13:15:30.999Z,21.45
2024-05-09T13:18:01.974Z,14.82
2024-05-09T13:20:33.814Z,14.38
2024-05-09T13:23:04.119Z,13.48
2024-05-09T13:25:31.855Z,13.73
2024-05-09T13:27:59.314Z,14.95
2024-05-09T13:30:35.523Z,16.00
2024-05-09T13:33:09.394Z,16.27
2024-05-09T13:35:37.167Z,18.92
2024-05-09T13:38:05.217Z,17.70
2024-05-09T13:40:36.100Z,15.85
2024-05-09T13:43:05.016Z,16.75
2024-05-09T13:45:33.018Z,17.23
2024-05-09T13:48:01.049Z,17.02
2024-05-09T13:50:34.181Z,15.02
2024-05-09T13:53:05.994Z,14.20
2024-05-09T13:55:35.461Z,17.35
2024-05-09T13:58:03.195Z,18.20
2024-05-09T14:00:42.526Z,14.73
2024-05-09T14:03:15.686Z,16.33
2024-05-09T14:05:44.256Z,14.48
2024-05-09T14:08:12.428Z,14.95
2024-05-09T14:10:44.252Z,14.82
2024-05-09T14:13:13.770Z,15.95
2024-05-09T14:15:41.677Z,15.27
2024-05-09T14:18:12.670Z,14.10
2024-05-09T14:20:41.580Z,14.65
2024-05-09T14:23:09.053Z,15.32
2024-05-09T14:25:39.781Z,16.38
2024-05-09T14:28:09.428Z,16.15
2024-05-09T14:30:38.701Z,16.75
2024-05-09T14:33:08.287Z,17.35
2024-05-09T14:35:37.947Z,16.20
2024-05-09T14:38:06.826Z,17.58
2024-05-09T14:40:41.036Z,17.30
2024-05-09T14:43:11.361Z,16.23
2024-05-09T14:45:39.304Z,13.93
2024-05-09T14:48:07.581Z,16.33
2024-05-09T14:53:07.051Z,17.33
2024-05-09T14:55:37.459Z,16.77
2024-05-09T14:58:09.244Z,20.13
2024-05-09T15:00:43.007Z,15.57
2024-05-09T15:03:13.881Z,18.92
2024-05-09T15:05:41.339Z,19.20
2024-05-09T15:08:09.260Z,17.90
2024-05-09T15:10:37.561Z,19.42
2024-05-09T15:13:07.283Z,18.13
2024-05-09T15:15:36.411Z,18.80
2024-05-09T15:18:07.168Z,20.30
2024-05-09T15:20:36.838Z,19.58
2024-05-09T15:23:06.766Z,19.88
2024-05-09T15:25:35.821Z,18.67
2024-05-09T15:28:04.391Z,19.85
2024-05-09T15:33:04.052Z,16.73
2024-05-09T15:35:31.912Z,22.27
2024-05-09T15:37:59.273Z,20.88
2024-05-09T15:40:35.654Z,21.25
2024-05-09T15:45:35.977Z,21.13
2024-05-09T15:48:04.663Z,19.77
2024-05-09T15:50:37.656Z,20.55
2024-05-09T15:53:09.167Z,22.27
2024-05-09T15:55:37.292Z,19.73
2024-05-09T15:58:05.502Z,24.05
2024-05-09T16:00:38.116Z,17.80
2024-05-09T16:03:12.759Z,22.50
2024-05-09T16:05:41.749Z,21.98
2024-05-09T16:08:09.463Z,22.92
2024-05-09T16:10:43.554Z,23.80
2024-05-09T16:13:12.562Z,21.80
2024-05-09T16:15:40.282Z,23.40
2024-05-09T16:18:08.109Z,21.10
2024-05-09T16:20:40.150Z,22.58
2024-05-09T16:23:10.187Z,22.48
2024-05-09T16:28:09.720Z,22.55
2024-05-09T16:30:38.506Z,22.40
2024-05-09T16:33:07.615Z,23.17
2024-05-09T16:35:43.343Z,23.92
2024-05-09T16:38:10.750Z,24.70
2024-05-09T16:40:40.653Z,25.50
2024-05-09T16:43:10.594Z,23.65
2024-05-09T16:45:38.637Z,22.05
2024-05-09T16:48:07.399Z,24.70
2024-05-09T16:50:35.921Z,24.25
2024-05-09T16:53:04.997Z,22.98
2024-05-09T16:55:33.794Z,23.70
2024-05-09T17:00:39.074Z,22.88
2024-05-09T17:03:11.415Z,22.65
2024-05-09T17:05:39.914Z,22.30
2024-05-09T17:08:07.974Z,21.75
2024-05-09T17:10:36.630Z,22.98
2024-05-09T17:13:06.269Z,23.90
2024-05-09T17:15:35.502Z,24.38
2024-05-09T17:18:03.567Z,22.88
2024-05-09T17:20:34.649Z,21.92
2024-05-09T17:23:05.825Z,22.20
2024-05-09T17:25:34.155Z,21.88
2024-05-09T17:28:07.601Z,22.85
2024-05-09T17:30:38.376Z,25.40
2024-05-09T17:33:08.798Z,20.20
2024-05-09T17:35:37.202Z,23.13
2024-05-09T17:38:05.920Z,22.85
2024-05-09T17:40:36.218Z,21.73
2024-05-09T17:43:06.681Z,25.17
2024-05-09T17:45:37.653Z,23.95
2024-05-09T17:48:05.548Z,23.23
2024-05-09T17:50:36.089Z,24.48
2024-05-09T17:53:05.782Z,27.00
2024-05-09T17:55:33.609Z,21.98
2024-05-09T17:58:01.538Z,24.92
2024-05-09T18:00:37.183Z,23.13
2024-05-09T18:03:08.754Z,23.58
2024-05-09T18:05:37.627Z,24.58
2024-05-09T18:08:06.077Z,26.83
2024-05-09T18:10:37.748Z,24.70
2024-05-09T18:13:07.602Z,25.50
2024-05-09T18:15:35.166Z,23.13
2024-05-09T18:18:03.346Z,24.33
2024-05-09T18:20:40.676Z,26.05
2024-05-09T18:23:13.380Z,25.23
2024-05-09T18:25:41.217Z,24.10
2024-05-09T18:28:09.086Z,22.42
2024-05-09T18:30:37.437Z,25.95
2024-05-09T18:33:07.738Z,24.88
2024-05-09T18:35:36.400Z,23.35
2024-05-09T18:40:35.550Z,24.13
2024-05-09T18:43:07.375Z,24.25
2024-05-09T18:45:37.086Z,24.17
2024-05-09T18:48:06.063Z,23.75
2024-05-09T18:50:37.728Z,24.45
2024-05-09T18:53:07.658Z,27.50
2024-05-09T18:55:35.150Z,28.70
2024-05-09T18:58:02.850Z,27.23
2024-05-09T19:00:35.915Z,22.70
2024-05-09T19:03:10.116Z,25.88
2024-05-09T19:05:40.674Z,24.83
2024-05-09T19:08:08.947Z,23.27
2024-05-09T19:10:37.904Z,26.15
2024-05-09T19:13:09.331Z,24.15
2024-05-09T19:18:08.045Z,23.42
2024-05-09T19:20:37.070Z,24.67
2024-05-09T19:23:06.140Z,23.85
2024-05-09T19:25:34.552Z,24.13
2024-05-09T19:28:02.281Z,22.25
2024-05-09T19:30:37.947Z,22.85
2024-05-09T19:33:09.290Z,22.88
2024-05-09T19:35:37.445Z,23.08
2024-05-09T19:38:05.461Z,25.27
2024-05-09T19:40:34.567Z,25.83
2024-05-09T19:43:03.771Z,24.40
2024-05-09T19:45:33.529Z,21.95
2024-05-09T19:48:01.789Z,22.92
2024-05-09T19:50:37.247Z,24.90
2024-05-09T19:53:10.602Z,25.75
2024-05-09T19:55:38.471Z,22.65
2024-05-09T19:58:07.337Z,22.88
2024-05-09T20:00:37.654Z,21.58
2024-05-09T20:03:07.610Z,21.67
2024-05-09T20:05:36.024Z,21.63
2024-05-09T20:08:03.887Z,19.38
2024-05-09T20:10:33.465Z,17.45
2024-05-09T20:13:03.130Z,23.25
2024-05-09T20:15:30.900Z,22.92
2024-05-09T20:17:58.494Z,19.67
2024-05-09T20:20:33.784Z,19.90
2024-05-09T20:23:06.510Z,19.85
2024-05-09T20:25:33.843Z,23.88
2024-05-09T20:28:01.355Z,23.05
2024-05-09T20:30:32.519Z,21.02
2024-05-09T20:33:02.955Z,22.25
2024-05-09T20:35:35.037Z,22.98
2024-05-09T20:38:03.592Z,22.92
2024-05-09T20:40:35.604Z,22.00
2024-05-09T20:43:06.911Z,25.50
2024-05-09T20:45:35.106Z,24.10
2024-05-09T20:48:02.862Z,23.25
2024-05-09T20:50:37.500Z,23.70
2024-05-09T20:53:12.171Z,24.88
2024-05-09T20:55:40.713Z,25.73
2024-05-09T20:58:08.862Z,28.50
2024-05-09T21:00:40.505Z,26.77
2024-05-09T21:03:11.994Z,24.92
2024-05-09T21:05:40.255Z,29.88
2024-05-09T21:08:08.109Z,28.60
2024-05-09T21:10:37.104Z,28.80
2024-05-09T21:13:05.850Z,28.15
2024-05-09T21:15:34.186Z,29.52
2024-05-09T21:18:01.782Z,29.98
2024-05-09T21:20:32.785Z,31.98
2024-05-09T21:23:01.041Z,31.13
2024-05-09T21:25:28.606Z,29.40
2024-05-09T21:27:56.121Z,28.17
2024-05-09T21:30:32.597Z,29.58
2024-05-09T21:33:12.289Z,30.75
2024-05-09T21:35:41.427Z,30.92
2024-05-09T21:38:08.867Z,32.28
2024-05-09T21:40:37.360Z,29.35
2024-05-09T21:43:06.092Z,32.58
2024-05-09T21:45:34.446Z,30.17
2024-05-09T21:48:03.926Z,32.60
2024-05-09T21:50:38.577Z,33.22
2024-05-09T21:53:08.567Z,31.27
2024-05-09T21:55:35.979Z,35.40
2024-05-09T21:58:03.717Z,32.53
2024-05-09T22:00:36.856Z,31.48
2024-05-09T22:05:34.056Z,33.38
2024-05-09T22:08:01.633Z,33.63
2024-05-09T22:10:33.882Z,37.13
2024-05-09T22:13:04.008Z,37.15
2024-05-09T22:15:35.356Z,34.38
2024-05-09T22:18:03.407Z,33.97
2024-05-09T22:20:36.852Z,37.75
2024-05-09T22:23:06.704Z,37.05
2024-05-09T22:25:34.403Z,38.72
2024-05-09T22:28:02.802Z,35.90
2024-05-09T22:30:36.208Z,31.27
2024-05-09T22:33:07.595Z,35.60
2024-05-09T22:38:03.481Z,37.83
2024-05-09T22:40:41.650Z,32.47
2024-05-09T22:43:14.788Z,35.95
2024-05-09T22:45:42.291Z,36.20
2024-05-09T22:48:09.994Z,36.33
2024-05-09T22:50:37.430Z,34.17
2024-05-09T22:53:05.580Z,37.92
2024-05-09T22:55:33.105Z,38.83
2024-05-09T22:58:00.515Z,36.10
2024-05-09T23:00:31.730Z,37.42
2024-05-09T23:03:01.600Z,35.08
2024-05-09T23:05:29.699Z,36.60
2024-05-09T23:07:57.279Z,37.97
2024-05-09T23:10:31.697Z,40.88
2024-05-09T23:13:03.569Z,38.45
2024-05-09T23:15:31.164Z,37.70
2024-05-09T23:17:58.986Z,35.53
2024-05-09T23:20:33.957Z,38.08
2024-05-09T23:23:05.884Z,33.83
2024-05-09T23:25:33.303Z,35.90
2024-05-09T23:28:00.714Z,34.33
2024-05-09T23:30:34.725Z,35.80
2024-05-09T23:33:06.555Z,33.90
2024-05-09T23:35:34.012Z,33.53
2024-05-09T23:38:01.351Z,33.83
2024-05-09T23:40:37.692Z,32.60
2024-05-09T23:43:08.441Z,34.25
2024-05-09T23:45:36.258Z,35.63
2024-05-09T23:48:04.025Z,33.97
2024-05-09T23:50:36.076Z,37.70
2024-05-09T23:53:06.942Z,38.28
2024-05-09T23:55:35.520Z,37.72
2024-05-09T23:58:02.962Z,35.17
